sensor_id;sensor_type;location;lat;lon;timestamp;P1;durP1;ratioP1;P2;durP2;ratioP2
48975;SDS011;34791;52.752;8.346;2023-02-21T00:01:23;54.37;;;24.87;;
48975;SDS011;34791;52.752;8.346;2023-02-21T00:04:07;45.87;;;21.37;;
48975;SDS011;34791;52.752;8.346;2023-02-21T00:06:51;55.50;;;25.33;;
48975;SDS011;34791;52.752;8.346;2023-02-21T00:09:37;53.47;;;24.93;;
48975;SDS011;34791;52.752;8.346;2023-02-21T00:12:21;53.67;;;23.97;;
48975;SDS011;34791;52.752;8.346;2023-02-21T00:15:05;53.60;;;26.10;;
48975;SDS011;34791;52.752;8.346;2023-02-21T00:17:49;51.33;;;25.03;;
48975;SDS011;34791;52.752;8.346;2023-02-21T00:20:33;61.27;;;28.43;;
48975;SDS011;34791;52.752;8.346;2023-02-21T00:23:17;48.20;;;23.40;;
48975;SDS011;34791;52.752;8.346;2023-02-21T00:26:01;44.90;;;22.30;;
48975;SDS011;34791;52.752;8.346;2023-02-21T00:28:45;55.40;;;27.20;;
48975;SDS011;34791;52.752;8.346;2023-02-21T00:31:29;54.30;;;28.03;;
48975;SDS011;34791;52.752;8.346;2023-02-21T00:34:13;52.73;;;25.97;;
48975;SDS011;34791;52.752;8.346;2023-02-21T00:36:56;59.93;;;28.03;;
48975;SDS011;34791;52.752;8.346;2023-02-21T00:39:40;58.97;;;28.33;;
48975;SDS011;34791;52.752;8.346;2023-02-21T00:42:24;56.40;;;26.00;;
48975;SDS011;34791;52.752;8.346;2023-02-21T00:45:09;40.40;;;19.60;;
48975;SDS011;34791;52.752;8.346;2023-02-21T00:47:53;54.03;;;28.07;;
48975;SDS011;34791;52.752;8.346;2023-02-21T00:50:37;50.00;;;25.73;;
48975;SDS011;34791;52.752;8.346;2023-02-21T00:53:22;51.83;;;24.13;;
48975;SDS011;34791;52.752;8.346;2023-02-21T00:56:07;47.60;;;24.77;;
48975;SDS011;34791;52.752;8.346;2023-02-21T00:58:51;53.70;;;27.20;;
48975;SDS011;34791;52.752;8.346;2023-02-21T01:01:35;38.87;;;17.17;;
48975;SDS011;34791;52.752;8.346;2023-02-21T01:04:19;45.57;;;21.30;;
48975;SDS011;34791;52.752;8.346;2023-02-21T01:07:03;42.90;;;21.90;;
48975;SDS011;34791;52.752;8.346;2023-02-21T01:09:47;55.37;;;26.50;;
48975;SDS011;34791;52.752;8.346;2023-02-21T01:12:31;59.17;;;26.87;;
48975;SDS011;34791;52.752;8.346;2023-02-21T01:15:15;40.37;;;20.57;;
48975;SDS011;34791;52.752;8.346;2023-02-21T01:17:59;43.50;;;22.30;;
48975;SDS011;34791;52.752;8.346;2023-02-21T01:20:42;42.80;;;20.97;;
48975;SDS011;34791;52.752;8.346;2023-02-21T01:23:27;50.27;;;26.53;;
48975;SDS011;34791;52.752;8.346;2023-02-21T01:26:10;46.33;;;21.80;;
48975;SDS011;34791;52.752;8.346;2023-02-21T01:28:54;53.57;;;27.37;;
48975;SDS011;34791;52.752;8.346;2023-02-21T01:31:38;53.00;;;26.20;;
48975;SDS011;34791;52.752;8.346;2023-02-21T01:34:22;54.17;;;26.73;;
48975;SDS011;34791;52.752;8.346;2023-02-21T01:37:06;49.40;;;23.43;;
48975;SDS011;34791;52.752;8.346;2023-02-21T01:39:50;45.30;;;22.47;;
48975;SDS011;34791;52.752;8.346;2023-02-21T01:42:34;49.87;;;23.93;;
48975;SDS011;34791;52.752;8.346;2023-02-21T01:48:12;42.17;;;21.77;;
48975;SDS011;34791;52.752;8.346;2023-02-21T01:50:58;43.93;;;21.43;;
48975;SDS011;34791;52.752;8.346;2023-02-21T01:53:43;49.60;;;26.40;;
48975;SDS011;34791;52.752;8.346;2023-02-21T01:56:28;48.20;;;26.63;;
48975;SDS011;34791;52.752;8.346;2023-02-21T01:59:13;48.90;;;24.57;;
48975;SDS011;34791;52.752;8.346;2023-02-21T02:02:07;42.60;;;22.33;;
48975;SDS011;34791;52.752;8.346;2023-02-21T02:05:00;47.03;;;23.45;;
48975;SDS011;34791;52.752;8.346;2023-02-21T02:07:45;42.27;;;20.60;;
48975;SDS011;34791;52.752;8.346;2023-02-21T02:10:30;45.97;;;23.20;;
48975;SDS011;34791;52.752;8.346;2023-02-21T02:16:11;41.27;;;21.90;;
48975;SDS011;34791;52.752;8.346;2023-02-21T02:45:48;45.90;;;23.00;;
48975;SDS011;34791;52.752;8.346;2023-02-21T02:50:58;52.60;;;25.50;;
48975;SDS011;34791;52.752;8.346;2023-02-21T02:53:28;53.37;;;25.77;;
48975;SDS011;34791;52.752;8.346;2023-02-21T02:55:58;48.97;;;22.27;;
48975;SDS011;34791;52.752;8.346;2023-02-21T02:58:33;51.50;;;24.57;;
48975;SDS011;34791;52.752;8.346;2023-02-21T03:09:13;57.80;;;29.03;;
48975;SDS011;34791;52.752;8.346;2023-02-21T03:11:52;54.47;;;26.43;;
48975;SDS011;34791;52.752;8.346;2023-02-21T03:14:36;59.50;;;27.67;;
48975;SDS011;34791;52.752;8.346;2023-02-21T03:17:10;68.47;;;31.53;;
48975;SDS011;34791;52.752;8.346;2023-02-21T03:19:41;72.27;;;26.83;;
48975;SDS011;34791;52.752;8.346;2023-02-21T03:22:12;71.60;;;30.57;;
48975;SDS011;34791;52.752;8.346;2023-02-21T03:24:40;71.87;;;28.00;;
48975;SDS011;34791;52.752;8.346;2023-02-21T03:27:08;76.70;;;31.93;;
48975;SDS011;34791;52.752;8.346;2023-02-21T03:29:36;62.87;;;24.47;;
48975;SDS011;34791;52.752;8.346;2023-02-21T03:32:07;71.10;;;29.03;;
48975;SDS011;34791;52.752;8.346;2023-02-21T03:34:38;63.37;;;26.20;;
48975;SDS011;34791;52.752;8.346;2023-02-21T03:37:09;74.90;;;29.67;;
48975;SDS011;34791;52.752;8.346;2023-02-21T03:39:42;75.40;;;31.77;;
48975;SDS011;34791;52.752;8.346;2023-02-21T03:42:08;68.27;;;29.40;;
48975;SDS011;34791;52.752;8.346;2023-02-21T03:44:33;81.23;;;31.37;;
48975;SDS011;34791;52.752;8.346;2023-02-21T03:46:58;70.50;;;26.40;;
48975;SDS011;34791;52.752;8.346;2023-02-21T03:49:24;59.70;;;24.57;;
48975;SDS011;34791;52.752;8.346;2023-02-21T03:51:49;69.23;;;28.57;;
48975;SDS011;34791;52.752;8.346;2023-02-21T03:54:14;72.93;;;28.93;;
48975;SDS011;34791;52.752;8.346;2023-02-21T03:56:40;66.80;;;26.20;;
48975;SDS011;34791;52.752;8.346;2023-02-21T03:59:05;71.90;;;29.10;;
48975;SDS011;34791;52.752;8.346;2023-02-21T04:01:30;69.17;;;26.63;;
48975;SDS011;34791;52.752;8.346;2023-02-21T04:03:56;71.13;;;26.73;;
48975;SDS011;34791;52.752;8.346;2023-02-21T04:06:21;70.67;;;28.00;;
48975;SDS011;34791;52.752;8.346;2023-02-21T04:08:46;72.17;;;30.47;;
48975;SDS011;34791;52.752;8.346;2023-02-21T04:11:12;78.10;;;28.87;;
48975;SDS011;34791;52.752;8.346;2023-02-21T04:13:42;56.70;;;23.83;;
48975;SDS011;34791;52.752;8.346;2023-02-21T04:16:07;75.73;;;28.70;;
48975;SDS011;34791;52.752;8.346;2023-02-21T04:18:32;79.63;;;30.07;;
48975;SDS011;34791;52.752;8.346;2023-02-21T04:20:58;71.37;;;26.00;;
48975;SDS011;34791;52.752;8.346;2023-02-21T04:23:23;75.03;;;28.63;;
48975;SDS011;34791;52.752;8.346;2023-02-21T04:25:48;61.27;;;23.60;;
48975;SDS011;34791;52.752;8.346;2023-02-21T04:28:14;76.03;;;28.63;;
48975;SDS011;34791;52.752;8.346;2023-02-21T04:30:39;76.87;;;29.77;;
48975;SDS011;34791;52.752;8.346;2023-02-21T04:33:05;70.63;;;27.73;;
48975;SDS011;34791;52.752;8.346;2023-02-21T04:35:30;74.00;;;26.97;;
48975;SDS011;34791;52.752;8.346;2023-02-21T04:37:55;64.87;;;25.77;;
48975;SDS011;34791;52.752;8.346;2023-02-21T04:40:21;74.43;;;29.30;;
48975;SDS011;34791;52.752;8.346;2023-02-21T04:42:46;77.73;;;27.87;;
48975;SDS011;34791;52.752;8.346;2023-02-21T04:45:12;59.93;;;22.50;;
48975;SDS011;34791;52.752;8.346;2023-02-21T04:47:37;50.60;;;20.47;;
48975;SDS011;34791;52.752;8.346;2023-02-21T04:50:03;65.87;;;24.83;;
48975;SDS011;34791;52.752;8.346;2023-02-21T04:52:29;50.87;;;20.00;;
48975;SDS011;34791;52.752;8.346;2023-02-21T04:54:55;58.10;;;22.13;;
48975;SDS011;34791;52.752;8.346;2023-02-21T04:57:20;69.73;;;24.87;;
48975;SDS011;34791;52.752;8.346;2023-02-21T04:59:46;66.40;;;26.40;;
48975;SDS011;34791;52.752;8.346;2023-02-21T05:02:11;56.27;;;22.60;;
48975;SDS011;34791;52.752;8.346;2023-02-21T05:04:37;56.20;;;22.60;;
48975;SDS011;34791;52.752;8.346;2023-02-21T05:07:02;68.13;;;26.47;;
48975;SDS011;34791;52.752;8.346;2023-02-21T05:09:29;69.67;;;26.57;;
48975;SDS011;34791;52.752;8.346;2023-02-21T05:11:54;77.83;;;29.50;;
48975;SDS011;34791;52.752;8.346;2023-02-21T05:14:19;73.80;;;28.27;;
48975;SDS011;34791;52.752;8.346;2023-02-21T05:16:45;62.40;;;24.83;;
48975;SDS011;34791;52.752;8.346;2023-02-21T05:19:10;69.43;;;27.73;;
48975;SDS011;34791;52.752;8.346;2023-02-21T05:21:36;77.50;;;28.13;;
48975;SDS011;34791;52.752;8.346;2023-02-21T05:24:03;51.50;;;21.27;;
48975;SDS011;34791;52.752;8.346;2023-02-21T05:26:33;64.77;;;27.43;;
48975;SDS011;34791;52.752;8.346;2023-02-21T05:29:01;77.43;;;30.87;;
48975;SDS011;34791;52.752;8.346;2023-02-21T05:31:27;64.93;;;26.23;;
48975;SDS011;34791;52.752;8.346;2023-02-21T05:33:52;69.30;;;26.57;;
48975;SDS011;34791;52.752;8.346;2023-02-21T05:36:18;51.77;;;21.30;;
48975;SDS011;34791;52.752;8.346;2023-02-21T05:38:47;60.33;;;24.80;;
48975;SDS011;34791;52.752;8.346;2023-02-21T05:41:15;80.28;;;30.67;;
48975;SDS011;34791;52.752;8.346;2023-02-21T05:43:45;83.33;;;30.30;;
48975;SDS011;34791;52.752;8.346;2023-02-21T05:48:42;50.35;;;21.25;;
48975;SDS011;34791;52.752;8.346;2023-02-21T05:51:08;68.37;;;26.90;;
48975;SDS011;34791;52.752;8.346;2023-02-21T05:53:33;66.30;;;25.80;;
48975;SDS011;34791;52.752;8.346;2023-02-21T05:55:58;52.67;;;20.37;;
48975;SDS011;34791;52.752;8.346;2023-02-21T05:58:24;51.40;;;21.07;;
48975;SDS011;34791;52.752;8.346;2023-02-21T06:00:50;59.03;;;25.87;;
48975;SDS011;34791;52.752;8.346;2023-02-21T06:03:15;53.60;;;25.93;;
48975;SDS011;34791;52.752;8.346;2023-02-21T06:05:40;47.27;;;21.87;;
48975;SDS011;34791;52.752;8.346;2023-02-21T06:08:06;54.77;;;24.57;;
48975;SDS011;34791;52.752;8.346;2023-02-21T06:10:31;53.07;;;21.97;;
48975;SDS011;34791;52.752;8.346;2023-02-21T06:12:56;60.93;;;27.33;;
48975;SDS011;34791;52.752;8.346;2023-02-21T06:15:22;48.97;;;24.47;;
48975;SDS011;34791;52.752;8.346;2023-02-21T06:17:47;57.83;;;25.07;;
48975;SDS011;34791;52.752;8.346;2023-02-21T06:20:13;59.87;;;27.30;;
48975;SDS011;34791;52.752;8.346;2023-02-21T06:22:40;60.53;;;26.23;;
48975;SDS011;34791;52.752;8.346;2023-02-21T06:25:06;43.23;;;18.93;;
48975;SDS011;34791;52.752;8.346;2023-02-21T06:27:32;42.43;;;20.10;;
48975;SDS011;34791;52.752;8.346;2023-02-21T06:29:57;46.00;;;20.67;;
48975;SDS011;34791;52.752;8.346;2023-02-21T06:32:24;37.97;;;17.97;;
48975;SDS011;34791;52.752;8.346;2023-02-21T06:34:49;48.80;;;22.07;;
48975;SDS011;34791;52.752;8.346;2023-02-21T06:37:16;52.73;;;23.57;;
48975;SDS011;34791;52.752;8.346;2023-02-21T06:39:42;54.73;;;25.03;;
48975;SDS011;34791;52.752;8.346;2023-02-21T06:42:11;56.50;;;26.77;;
48975;SDS011;34791;52.752;8.346;2023-02-21T06:44:37;45.30;;;22.37;;
48975;SDS011;34791;52.752;8.346;2023-02-21T06:47:03;44.17;;;21.80;;
48975;SDS011;34791;52.752;8.346;2023-02-21T06:49:28;51.20;;;24.03;;
48975;SDS011;34791;52.752;8.346;2023-02-21T06:51:53;40.17;;;17.53;;
48975;SDS011;34791;52.752;8.346;2023-02-21T06:54:19;49.77;;;23.30;;
48975;SDS011;34791;52.752;8.346;2023-02-21T06:56:44;50.33;;;24.13;;
48975;SDS011;34791;52.752;8.346;2023-02-21T06:59:09;38.10;;;17.40;;
48975;SDS011;34791;52.752;8.346;2023-02-21T07:01:35;35.63;;;15.47;;
48975;SDS011;34791;52.752;8.346;2023-02-21T07:04:00;47.30;;;20.90;;
48975;SDS011;34791;52.752;8.346;2023-02-21T07:06:26;44.47;;;19.20;;
48975;SDS011;34791;52.752;8.346;2023-02-21T07:08:52;45.43;;;20.80;;
48975;SDS011;34791;52.752;8.346;2023-02-21T07:11:18;45.83;;;22.27;;
48975;SDS011;34791;52.752;8.346;2023-02-21T07:13:50;46.97;;;21.50;;
48975;SDS011;34791;52.752;8.346;2023-02-21T07:16:17;49.83;;;19.30;;
48975;SDS011;34791;52.752;8.346;2023-02-21T07:18:44;48.57;;;22.67;;
48975;SDS011;34791;52.752;8.346;2023-02-21T07:21:10;49.27;;;21.90;;
48975;SDS011;34791;52.752;8.346;2023-02-21T07:23:36;54.60;;;24.93;;
48975;SDS011;34791;52.752;8.346;2023-02-21T07:26:01;47.37;;;21.50;;
48975;SDS011;34791;52.752;8.346;2023-02-21T07:28:26;44.30;;;18.93;;
48975;SDS011;34791;52.752;8.346;2023-02-21T07:30:52;47.17;;;21.17;;
48975;SDS011;34791;52.752;8.346;2023-02-21T07:33:17;41.33;;;20.87;;
48975;SDS011;34791;52.752;8.346;2023-02-21T07:35:42;43.57;;;20.50;;
48975;SDS011;34791;52.752;8.346;2023-02-21T07:38:08;43.00;;;21.13;;
48975;SDS011;34791;52.752;8.346;2023-02-21T07:40:33;42.83;;;20.90;;
48975;SDS011;34791;52.752;8.346;2023-02-21T07:42:59;51.63;;;23.33;;
48975;SDS011;34791;52.752;8.346;2023-02-21T07:45:24;45.10;;;20.47;;
48975;SDS011;34791;52.752;8.346;2023-02-21T07:47:49;47.10;;;21.67;;
48975;SDS011;34791;52.752;8.346;2023-02-21T07:50:17;51.93;;;24.07;;
48975;SDS011;34791;52.752;8.346;2023-02-21T07:52:42;48.40;;;23.10;;
48975;SDS011;34791;52.752;8.346;2023-02-21T07:55:09;48.23;;;21.97;;
48975;SDS011;34791;52.752;8.346;2023-02-21T07:57:36;47.17;;;21.73;;
48975;SDS011;34791;52.752;8.346;2023-02-21T08:00:01;39.07;;;20.03;;
48975;SDS011;34791;52.752;8.346;2023-02-21T08:02:28;54.40;;;24.83;;
48975;SDS011;34791;52.752;8.346;2023-02-21T08:04:53;43.93;;;21.03;;
48975;SDS011;34791;52.752;8.346;2023-02-21T08:07:19;53.80;;;23.57;;
48975;SDS011;34791;52.752;8.346;2023-02-21T08:09:44;56.03;;;26.13;;
48975;SDS011;34791;52.752;8.346;2023-02-21T08:12:10;42.73;;;20.10;;
48975;SDS011;34791;52.752;8.346;2023-02-21T08:14:36;48.47;;;24.10;;
48975;SDS011;34791;52.752;8.346;2023-02-21T08:17:01;52.20;;;25.73;;
48975;SDS011;34791;52.752;8.346;2023-02-21T08:19:27;49.50;;;26.73;;
48975;SDS011;34791;52.752;8.346;2023-02-21T08:21:52;40.47;;;20.27;;
48975;SDS011;34791;52.752;8.346;2023-02-21T08:24:17;48.63;;;22.10;;
48975;SDS011;34791;52.752;8.346;2023-02-21T08:26:43;49.10;;;24.20;;
48975;SDS011;34791;52.752;8.346;2023-02-21T08:29:09;48.43;;;23.77;;
48975;SDS011;34791;52.752;8.346;2023-02-21T08:31:38;50.63;;;24.63;;
48975;SDS011;34791;52.752;8.346;2023-02-21T08:34:05;53.70;;;24.80;;
48975;SDS011;34791;52.752;8.346;2023-02-21T08:36:35;46.73;;;21.80;;
48975;SDS011;34791;52.752;8.346;2023-02-21T08:39:03;48.45;;;22.95;;
48975;SDS011;34791;52.752;8.346;2023-02-21T08:41:42;51.20;;;25.10;;
48975;SDS011;34791;52.752;8.346;2023-02-21T08:44:10;53.60;;;27.10;;
48975;SDS011;34791;52.752;8.346;2023-02-21T08:46:37;51.83;;;24.77;;
48975;SDS011;34791;52.752;8.346;2023-02-21T08:49:04;37.23;;;16.53;;
48975;SDS011;34791;52.752;8.346;2023-02-21T08:51:30;44.33;;;20.43;;
48975;SDS011;34791;52.752;8.346;2023-02-21T08:53:56;49.50;;;23.50;;
48975;SDS011;34791;52.752;8.346;2023-02-21T08:56:23;44.67;;;22.47;;
48975;SDS011;34791;52.752;8.346;2023-02-21T08:58:50;47.77;;;20.50;;
48975;SDS011;34791;52.752;8.346;2023-02-21T09:01:15;52.87;;;25.07;;
48975;SDS011;34791;52.752;8.346;2023-02-21T09:03:41;48.77;;;23.87;;
48975;SDS011;34791;52.752;8.346;2023-02-21T09:06:07;50.47;;;25.47;;
48975;SDS011;34791;52.752;8.346;2023-02-21T09:08:33;55.33;;;25.47;;
48975;SDS011;34791;52.752;8.346;2023-02-21T09:11:00;43.07;;;20.03;;
48975;SDS011;34791;52.752;8.346;2023-02-21T09:13:27;44.40;;;20.47;;
48975;SDS011;34791;52.752;8.346;2023-02-21T09:15:53;47.70;;;24.57;;
48975;SDS011;34791;52.752;8.346;2023-02-21T09:18:20;45.07;;;22.03;;
48975;SDS011;34791;52.752;8.346;2023-02-21T09:20:47;42.17;;;20.27;;
48975;SDS011;34791;52.752;8.346;2023-02-21T09:23:19;45.47;;;19.87;;
48975;SDS011;34791;52.752;8.346;2023-02-21T09:25:46;46.43;;;22.33;;
48975;SDS011;34791;52.752;8.346;2023-02-21T09:28:13;47.80;;;23.60;;
48975;SDS011;34791;52.752;8.346;2023-02-21T09:30:38;40.70;;;17.93;;
48975;SDS011;34791;52.752;8.346;2023-02-21T09:33:04;47.13;;;23.50;;
48975;SDS011;34791;52.752;8.346;2023-02-21T09:35:30;53.30;;;24.83;;
48975;SDS011;34791;52.752;8.346;2023-02-21T09:37:55;50.23;;;25.03;;
48975;SDS011;34791;52.752;8.346;2023-02-21T09:43:51;44.87;;;21.27;;
48975;SDS011;34791;52.752;8.346;2023-02-21T09:46:28;38.27;;;20.03;;
48975;SDS011;34791;52.752;8.346;2023-02-21T09:48:56;42.03;;;19.00;;
48975;SDS011;34791;52.752;8.346;2023-02-21T09:51:22;41.10;;;22.17;;
48975;SDS011;34791;52.752;8.346;2023-02-21T09:53:49;39.03;;;20.43;;
48975;SDS011;34791;52.752;8.346;2023-02-21T09:58:56;41.27;;;20.80;;
48975;SDS011;34791;52.752;8.346;2023-02-21T10:07:17;40.00;;;20.30;;
48975;SDS011;34791;52.752;8.346;2023-02-21T10:09:55;37.77;;;18.63;;
48975;SDS011;34791;52.752;8.346;2023-02-21T10:12:36;39.40;;;20.43;;
48975;SDS011;34791;52.752;8.346;2023-02-21T10:20:59;41.00;;;20.50;;
48975;SDS011;34791;52.752;8.346;2023-02-21T10:23:45;38.23;;;17.73;;
48975;SDS011;34791;52.752;8.346;2023-02-21T10:26:22;32.93;;;17.10;;
48975;SDS011;34791;52.752;8.346;2023-02-21T10:28:50;33.83;;;14.93;;
48975;SDS011;34791;52.752;8.346;2023-02-21T10:31:19;39.17;;;19.63;;
48975;SDS011;34791;52.752;8.346;2023-02-21T10:33:51;43.50;;;20.93;;
48975;SDS011;34791;52.752;8.346;2023-02-21T10:36:17;39.90;;;20.60;;
48975;SDS011;34791;52.752;8.346;2023-02-21T10:38:58;48.03;;;22.47;;
48975;SDS011;34791;52.752;8.346;2023-02-21T10:41:35;42.37;;;21.87;;
48975;SDS011;34791;52.752;8.346;2023-02-21T10:44:05;40.70;;;21.20;;
48975;SDS011;34791;52.752;8.346;2023-02-21T10:47:10;37.03;;;18.30;;
48975;SDS011;34791;52.752;8.346;2023-02-21T10:49:43;45.03;;;21.93;;
48975;SDS011;34791;52.752;8.346;2023-02-21T10:52:15;46.17;;;21.23;;
48975;SDS011;34791;52.752;8.346;2023-02-21T10:55:04;46.90;;;22.67;;
48975;SDS011;34791;52.752;8.346;2023-02-21T10:57:42;37.40;;;15.33;;
48975;SDS011;34791;52.752;8.346;2023-02-21T11:00:18;49.03;;;23.53;;
48975;SDS011;34791;52.752;8.346;2023-02-21T11:02:49;49.87;;;23.10;;
48975;SDS011;34791;52.752;8.346;2023-02-21T11:05:19;47.03;;;23.03;;
48975;SDS011;34791;52.752;8.346;2023-02-21T11:08:06;42.97;;;20.10;;
48975;SDS011;34791;52.752;8.346;2023-02-21T11:10:37;45.00;;;22.10;;
48975;SDS011;34791;52.752;8.346;2023-02-21T11:13:21;49.50;;;23.17;;
48975;SDS011;34791;52.752;8.346;2023-02-21T11:15:47;39.75;;;19.05;;
48975;SDS011;34791;52.752;8.346;2023-02-21T11:18:18;51.87;;;25.43;;
48975;SDS011;34791;52.752;8.346;2023-02-21T11:20:48;49.85;;;22.73;;
48975;SDS011;34791;52.752;8.346;2023-02-21T11:23:17;48.40;;;24.87;;
48975;SDS011;34791;52.752;8.346;2023-02-21T11:25:45;55.03;;;25.10;;
48975;SDS011;34791;52.752;8.346;2023-02-21T11:30:38;54.13;;;25.07;;
48975;SDS011;34791;52.752;8.346;2023-02-21T11:33:08;47.37;;;22.07;;
48975;SDS011;34791;52.752;8.346;2023-02-21T11:35:34;57.17;;;23.37;;
48975;SDS011;34791;52.752;8.346;2023-02-21T11:38:07;47.47;;;25.23;;
48975;SDS011;34791;52.752;8.346;2023-02-21T11:40:53;48.63;;;24.63;;
48975;SDS011;34791;52.752;8.346;2023-02-21T11:48:16;45.27;;;21.53;;
48975;SDS011;34791;52.752;8.346;2023-02-21T11:50:52;51.20;;;24.27;;
48975;SDS011;34791;52.752;8.346;2023-02-21T11:53:19;53.03;;;24.70;;
48975;SDS011;34791;52.752;8.346;2023-02-21T11:55:54;45.53;;;19.50;;
48975;SDS011;34791;52.752;8.346;2023-02-21T11:58:40;49.90;;;23.90;;
48975;SDS011;34791;52.752;8.346;2023-02-21T12:01:22;42.03;;;20.55;;
48975;SDS011;34791;52.752;8.346;2023-02-21T12:17:37;53.23;;;25.93;;
48975;SDS011;34791;52.752;8.346;2023-02-21T12:20:28;51.13;;;24.57;;
48975;SDS011;34791;52.752;8.346;2023-02-21T12:31:47;47.23;;;22.33;;
48975;SDS011;34791;52.752;8.346;2023-02-21T12:48:39;44.30;;;21.03;;
48975;SDS011;34791;52.752;8.346;2023-02-21T12:51:11;45.50;;;20.87;;
48975;SDS011;34791;52.752;8.346;2023-02-21T12:56:23;47.10;;;21.77;;
48975;SDS011;34791;52.752;8.346;2023-02-21T12:58:58;48.83;;;22.67;;
48975;SDS011;34791;52.752;8.346;2023-02-21T13:01:35;56.57;;;27.23;;
48975;SDS011;34791;52.752;8.346;2023-02-21T13:04:09;44.77;;;22.20;;
48975;SDS011;34791;52.752;8.346;2023-02-21T13:07:01;44.77;;;22.00;;
48975;SDS011;34791;52.752;8.346;2023-02-21T13:09:36;52.70;;;23.53;;
48975;SDS011;34791;52.752;8.346;2023-02-21T13:12:11;45.38;;;21.45;;
48975;SDS011;34791;52.752;8.346;2023-02-21T13:14:48;43.93;;;21.80;;
48975;SDS011;34791;52.752;8.346;2023-02-21T13:17:19;44.47;;;22.50;;
48975;SDS011;34791;52.752;8.346;2023-02-21T13:19:49;46.37;;;22.30;;
48975;SDS011;34791;52.752;8.346;2023-02-21T13:28:35;45.33;;;21.20;;
48975;SDS011;34791;52.752;8.346;2023-02-21T13:31:03;38.00;;;17.97;;
48975;SDS011;34791;52.752;8.346;2023-02-21T13:33:37;42.00;;;19.40;;
48975;SDS011;34791;52.752;8.346;2023-02-21T13:38:48;40.13;;;17.97;;
48975;SDS011;34791;52.752;8.346;2023-02-21T13:41:26;36.93;;;18.70;;
48975;SDS011;34791;52.752;8.346;2023-02-21T13:43:53;39.50;;;19.67;;
48975;SDS011;34791;52.752;8.346;2023-02-21T13:46:21;37.23;;;18.40;;
48975;SDS011;34791;52.752;8.346;2023-02-21T13:57:39;35.67;;;17.00;;
48975;SDS011;34791;52.752;8.346;2023-02-21T14:03:00;36.60;;;16.47;;
48975;SDS011;34791;52.752;8.346;2023-02-21T14:06:20;38.43;;;17.30;;
48975;SDS011;34791;52.752;8.346;2023-02-21T14:10:51;38.70;;;18.73;;
48975;SDS011;34791;52.752;8.346;2023-02-21T14:16:16;38.60;;;18.53;;
48975;SDS011;34791;52.752;8.346;2023-02-21T14:34:10;45.83;;;21.23;;
48975;SDS011;34791;52.752;8.346;2023-02-21T14:36:37;41.30;;;19.57;;
48975;SDS011;34791;52.752;8.346;2023-02-21T14:39:05;40.03;;;17.97;;
48975;SDS011;34791;52.752;8.346;2023-02-21T14:50:06;41.03;;;20.07;;
48975;SDS011;34791;52.752;8.346;2023-02-21T15:03:02;40.87;;;19.23;;
48975;SDS011;34791;52.752;8.346;2023-02-21T15:08:23;40.37;;;19.67;;
48975;SDS011;34791;52.752;8.346;2023-02-21T15:10:50;42.90;;;20.50;;
48975;SDS011;34791;52.752;8.346;2023-02-21T15:15:53;51.60;;;23.13;;
48975;SDS011;34791;52.752;8.346;2023-02-21T15:18:23;50.83;;;22.30;;
48975;SDS011;34791;52.752;8.346;2023-02-21T15:21:10;55.60;;;22.13;;
48975;SDS011;34791;52.752;8.346;2023-02-21T15:23:46;55.20;;;21.37;;
48975;SDS011;34791;52.752;8.346;2023-02-21T15:26:27;53.13;;;21.77;;
48975;SDS011;34791;52.752;8.346;2023-02-21T15:29:04;55.00;;;21.93;;
48975;SDS011;34791;52.752;8.346;2023-02-21T15:31:42;50.57;;;21.90;;
48975;SDS011;34791;52.752;8.346;2023-02-21T15:34:18;53.70;;;22.77;;
48975;SDS011;34791;52.752;8.346;2023-02-21T15:37:01;55.00;;;23.53;;
48975;SDS011;34791;52.752;8.346;2023-02-21T15:39:40;54.83;;;21.17;;
48975;SDS011;34791;52.752;8.346;2023-02-21T15:42:11;59.27;;;23.47;;
48975;SDS011;34791;52.752;8.346;2023-02-21T15:44:44;53.37;;;19.93;;
48975;SDS011;34791;52.752;8.346;2023-02-21T15:47:23;55.50;;;22.10;;
48975;SDS011;34791;52.752;8.346;2023-02-21T15:50:10;56.10;;;23.07;;
48975;SDS011;34791;52.752;8.346;2023-02-21T15:52:45;58.53;;;23.23;;
48975;SDS011;34791;52.752;8.346;2023-02-21T16:00:31;52.13;;;20.40;;
48975;SDS011;34791;52.752;8.346;2023-02-21T16:06:14;62.00;;;22.20;;
48975;SDS011;34791;52.752;8.346;2023-02-21T16:11:47;55.53;;;21.80;;
48975;SDS011;34791;52.752;8.346;2023-02-21T16:20:14;55.93;;;21.67;;
48975;SDS011;34791;52.752;8.346;2023-02-21T16:22:44;63.43;;;23.67;;
48975;SDS011;34791;52.752;8.346;2023-02-21T16:25:22;54.33;;;22.83;;
48975;SDS011;34791;52.752;8.346;2023-02-21T16:27:50;62.27;;;22.97;;
48975;SDS011;34791;52.752;8.346;2023-02-21T16:32:49;64.20;;;22.80;;
48975;SDS011;34791;52.752;8.346;2023-02-21T16:35:17;60.77;;;25.00;;
48975;SDS011;34791;52.752;8.346;2023-02-21T16:40:16;60.87;;;22.53;;
48975;SDS011;34791;52.752;8.346;2023-02-21T16:42:48;57.37;;;20.93;;
48975;SDS011;34791;52.752;8.346;2023-02-21T16:45:18;61.63;;;23.70;;
48975;SDS011;34791;52.752;8.346;2023-02-21T16:47:43;63.13;;;23.60;;
48975;SDS011;34791;52.752;8.346;2023-02-21T16:50:29;65.13;;;24.63;;
48975;SDS011;34791;52.752;8.346;2023-02-21T16:52:59;70.30;;;24.90;;
48975;SDS011;34791;52.752;8.346;2023-02-21T16:55:26;63.27;;;24.13;;
48975;SDS011;34791;52.752;8.346;2023-02-21T16:57:53;61.73;;;21.73;;
48975;SDS011;34791;52.752;8.346;2023-02-21T17:00:39;67.33;;;24.07;;
48975;SDS011;34791;52.752;8.346;2023-02-21T17:03:04;73.13;;;25.97;;
48975;SDS011;34791;52.752;8.346;2023-02-21T17:05:30;77.70;;;28.33;;
48975;SDS011;34791;52.752;8.346;2023-02-21T17:07:55;81.00;;;28.63;;
48975;SDS011;34791;52.752;8.346;2023-02-21T17:10:22;83.07;;;27.00;;
48975;SDS011;34791;52.752;8.346;2023-02-21T17:12:48;93.07;;;30.43;;
48975;SDS011;34791;52.752;8.346;2023-02-21T17:15:13;95.47;;;33.50;;
48975;SDS011;34791;52.752;8.346;2023-02-21T17:17:39;93.57;;;31.07;;
48975;SDS011;34791;52.752;8.346;2023-02-21T17:20:05;90.90;;;33.63;;
48975;SDS011;34791;52.752;8.346;2023-02-21T17:22:31;87.27;;;31.37;;
48975;SDS011;34791;52.752;8.346;2023-02-21T17:24:57;87.57;;;30.97;;
48975;SDS011;34791;52.752;8.346;2023-02-21T17:27:22;81.57;;;25.50;;
48975;SDS011;34791;52.752;8.346;2023-02-21T17:29:47;79.80;;;26.87;;
48975;SDS011;34791;52.752;8.346;2023-02-21T17:32:13;77.23;;;24.27;;
48975;SDS011;34791;52.752;8.346;2023-02-21T17:34:38;79.93;;;24.87;;
48975;SDS011;34791;52.752;8.346;2023-02-21T17:37:04;68.17;;;23.27;;
48975;SDS011;34791;52.752;8.346;2023-02-21T17:39:29;70.77;;;24.53;;
48975;SDS011;34791;52.752;8.346;2023-02-21T17:41:55;64.27;;;20.83;;
48975;SDS011;34791;52.752;8.346;2023-02-21T17:44:21;59.43;;;21.93;;
48975;SDS011;34791;52.752;8.346;2023-02-21T17:46:49;59.20;;;20.63;;
48975;SDS011;34791;52.752;8.346;2023-02-21T17:49:16;62.67;;;22.30;;
48975;SDS011;34791;52.752;8.346;2023-02-21T17:51:46;56.50;;;20.77;;
48975;SDS011;34791;52.752;8.346;2023-02-21T17:54:13;48.60;;;16.63;;
48975;SDS011;34791;52.752;8.346;2023-02-21T17:56:40;54.80;;;19.53;;
48975;SDS011;34791;52.752;8.346;2023-02-21T17:59:05;56.23;;;20.23;;
48975;SDS011;34791;52.752;8.346;2023-02-21T18:01:31;56.40;;;21.20;;
48975;SDS011;34791;52.752;8.346;2023-02-21T18:03:56;52.07;;;18.37;;